Time;durP1;ratioP1;P1;durP2;ratioP2;P2;SDS_P1;SDS_P2;PMS_P1;PMS_P2;Temp;Humidity;BMP_temperature;BMP_pressure;BME280_temperature;BME280_humidity;BME280_pressure;Samples;Min_cycle;Max_cycle;Signal;HPM_P1;HPM_P2
2022/10/17 00:00:55;;;;;;;3.40;3.00;;;16.80;99.90;;;;;;5021225;28;21336;-71
2022/10/17 00:03:23;;;;;;;3.30;3.00;;;16.80;99.90;;;;;;5012745;28;20458;-71
2022/10/17 00:05:49;;;;;;;2.83;2.17;;;16.80;99.90;;;;;;5017021;28;20490;-71
2022/10/17 00:08:18;;;;;;;3.20;2.90;;;16.80;99.90;;;;;;5019843;28;20524;-71
2022/10/17 00:10:45;;;;;;;2.83;2.63;;;16.80;99.90;;;;;;4994163;28;20943;-71
2022/10/17 00:13:13;;;;;;;3.40;2.40;;;16.80;99.90;;;;;;4994289;28;20958;-71
2022/10/17 00:15:43;;;;;;;2.90;2.60;;;16.80;99.90;;;;;;5032294;28;20409;-71
2022/10/17 00:18:09;;;;;;;3.10;2.80;;;16.80;99.90;;;;;;5018612;28;20222;-71
2022/10/17 00:20:37;;;;;;;2.97;2.70;;;16.80;99.90;;;;;;5032926;28;20423;-71
2022/10/17 00:23:04;;;;;;;3.40;3.10;;;16.80;99.90;;;;;;5014360;28;20567;-70
2022/10/17 00:25:30;;;;;;;3.00;2.60;;;16.70;99.90;;;;;;5027530;28;20391;-71
2022/10/17 00:27:56;;;;;;;3.00;2.70;;;16.80;99.90;;;;;;5022877;28;20454;-71
2022/10/17 00:30:24;;;;;;;4.70;3.67;;;16.70;99.90;;;;;;5049526;28;20401;-71
2022/10/17 00:32:53;;;;;;;3.50;3.20;;;16.70;99.90;;;;;;5033332;28;20422;-71
2022/10/17 00:35:19;;;;;;;4.80;3.00;;;16.70;99.90;;;;;;5033887;28;20450;-71
2022/10/17 00:37:47;;;;;;;4.70;3.40;;;16.70;99.90;;;;;;5013398;28;20465;-71
2022/10/17 00:40:13;;;;;;;3.97;3.57;;;16.80;99.90;;;;;;5020942;28;20841;-71
2022/10/17 00:42:42;;;;;;;4.17;3.33;;;16.70;99.90;;;;;;5024364;28;20456;-71
2022/10/17 00:45:29;;;;;;;4.20;3.10;;;16.80;99.90;;;;;;5019546;28;20807;-71
2022/10/17 00:48:08;;;;;;;4.37;3.23;;;16.80;99.90;;;;;;5030201;28;20444;-71
2022/10/17 00:51:00;;;;;;;4.53;3.87;;;16.80;99.90;;;;;;5007217;28;20517;-71
2022/10/17 00:53:29;;;;;;;4.67;4.10;;;16.80;99.90;;;;;;5036195;28;20955;-71
2022/10/17 00:55:59;;;;;;;4.60;3.90;;;16.80;99.90;;;;;;5020730;28;20970;-71
2022/10/17 00:58:25;;;;;;;28.87;4.83;;;16.80;99.90;;;;;;4997558;28;20867;-71
2022/10/17 01:00:51;;;;;;;5.90;4.30;;;16.80;99.90;;;;;;5021755;28;20534;-71
2022/10/17 01:03:17;;;;;;;4.30;3.90;;;16.80;99.90;;;;;;5016506;28;20870;-71
2022/10/17 01:05:44;;;;;;;4.70;4.27;;;16.80;99.90;;;;;;5021074;28;20437;-71
2022/10/17 01:08:12;;;;;;;5.03;4.53;;;16.80;99.90;;;;;;5027312;28;20490;-71
2022/10/17 01:11:11;;;;;;;5.20;3.83;;;16.80;99.90;;;;;;5036199;28;20416;-71
2022/10/17 01:13:50;;;;;;;4.20;3.80;;;16.70;99.90;;;;;;5048064;28;20903;-71
2022/10/17 01:16:34;;;;;;;8.53;4.73;;;16.70;99.90;;;;;;4997167;28;20418;-71
2022/10/17 01:19:14;;;;;;;5.53;3.93;;;16.80;99.90;;;;;;5033658;28;20457;-71
2022/10/17 01:21:58;;;;;;;5.03;4.53;;;16.70;99.90;;;;;;4985871;28;20993;-71
2022/10/17 01:25:04;;;;;;;6.73;4.10;;;16.80;99.90;;;;;;4982321;28;20437;-71
2022/10/17 01:27:44;;;;;;;4.93;4.40;;;16.70;99.90;;;;;;5028026;28;20507;-71
2022/10/17 01:30:41;;;;;;;6.13;4.03;;;16.80;99.90;;;;;;4965073;28;20433;-71
2022/10/17 01:33:53;;;;;;;9.97;4.20;;;16.80;99.90;;;;;;5018891;28;20427;-71
2022/10/17 01:36:32;;;;;;;6.00;4.57;;;16.80;99.90;;;;;;5012518;28;20437;-71
2022/10/17 01:39:16;;;;;;;4.30;3.90;;;16.80;99.90;;;;;;5020335;28;20528;-71
2022/10/17 01:42:05;;;;;;;4.00;3.60;;;16.80;99.90;;;;;;5041275;28;20444;-71
2022/10/17 01:44:37;;;;;;;6.50;3.70;;;16.70;99.90;;;;;;5028832;28;20444;-71
2022/10/17 01:47:10;;;;;;;5.80;4.77;;;16.70;99.90;;;;;;5023250;28;20545;-71
2022/10/17 01:49:40;;;;;;;4.23;3.80;;;16.70;99.90;;;;;;5029271;28;20401;-71
2022/10/17 01:52:12;;;;;;;4.40;4.00;;;16.80;99.90;;;;;;5024838;28;20423;-71
2022/10/17 01:55:02;;;;;;;5.20;4.33;;;16.70;99.90;;;;;;5029301;28;20760;-71
2022/10/17 01:57:41;;;;;;;4.20;3.70;;;16.70;99.90;;;;;;5021345;28;20504;-71
2022/10/17 02:00:14;;;;;;;5.20;4.20;;;16.70;99.90;;;;;;5031689;28;20496;-71
2022/10/17 02:02:47;;;;;;;4.60;4.00;;;16.70;99.90;;;;;;4994198;28;20478;-71
2022/10/17 02:05:21;;;;;;;4.80;4.40;;;16.70;99.90;;;;;;5032148;28;20431;-71
2022/10/17 02:07:47;;;;;;;9.77;4.57;;;16.80;99.90;;;;;;5031927;28;20481;-71
2022/10/17 02:10:36;;;;;;;4.83;3.73;;;16.70;99.90;;;;;;4981473;28;20425;-71
2022/10/17 02:13:20;;;;;;;6.67;4.57;;;16.70;99.90;;;;;;5001894;28;20979;-71
2022/10/17 02:15:56;;;;;;;5.03;4.37;;;16.70;99.90;;;;;;5012965;28;21046;-72
2022/10/17 02:18:58;;;;;;;5.47;4.80;;;16.80;99.90;;;;;;5012212;28;20543;-72
2022/10/17 02:21:42;;;;;;;5.23;4.73;;;16.70;99.90;;;;;;5026475;28;20454;-71
2022/10/17 02:24:25;;;;;;;5.60;4.33;;;16.80;99.90;;;;;;4992538;28;20482;-72
2022/10/17 02:27:13;;;;;;;5.37;4.87;;;16.70;99.90;;;;;;5026599;28;20459;-72
2022/10/17 02:30:09;;;;;;;4.50;4.10;;;16.70;99.90;;;;;;5048365;28;20477;-71
2022/10/17 02:32:58;;;;;;;5.10;4.60;;;16.80;99.90;;;;;;5024783;28;20424;-72
2022/10/17 02:35:29;;;;;;;7.10;4.70;;;16.70;99.90;;;;;;5044048;28;20424;-71
2022/10/17 02:37:56;;;;;;;5.37;4.87;;;16.70;99.90;;;;;;5030815;28;20452;-71
2022/10/17 02:40:28;;;;;;;5.07;4.10;;;16.70;99.90;;;;;;5016948;28;20437;-71
2022/10/17 02:42:55;;;;;;;4.30;3.90;;;16.70;99.90;;;;;;5029145;28;20522;-71
2022/10/17 02:45:26;;;;;;;5.90;4.53;;;16.80;99.90;;;;;;5015459;28;20417;-71
2022/10/17 02:48:07;;;;;;;6.30;4.67;;;16.80;99.90;;;;;;5012913;28;20461;-71
2022/10/17 02:51:00;;;;;;;4.60;4.00;;;16.70;99.90;;;;;;5029781;28;20421;-71
2022/10/17 02:53:40;;;;;;;6.00;4.50;;;16.80;99.90;;;;;;5027786;28;20456;-71
2022/10/17 02:56:15;;;;;;;5.13;4.67;;;16.70;99.90;;;;;;4992405;28;20413;-71
2022/10/17 02:58:47;;;;;;;5.57;5.07;;;16.70;99.90;;;;;;5045195;28;20838;-71
2022/10/17 03:01:16;;;;;;;5.40;4.90;;;16.70;99.90;;;;;;5029589;28;20420;-72
2022/10/17 03:03:42;;;;;;;5.47;4.97;;;16.70;99.90;;;;;;5010077;28;20425;-72
2022/10/17 03:06:11;;;;;;;6.00;4.40;;;16.70;99.90;;;;;;5025140;28;20433;-71
2022/10/17 03:08:39;;;;;;;6.67;5.20;;;16.70;99.90;;;;;;4992017;28;20449;-72
2022/10/17 03:11:08;;;;;;;6.50;4.70;;;16.70;99.90;;;;;;5024324;28;20414;-72
2022/10/17 03:13:43;;;;;;;8.53;5.07;;;16.80;99.90;;;;;;4995483;28;20394;-71
2022/10/17 03:16:12;;;;;;;6.20;4.30;;;16.70;99.90;;;;;;5030942;28;20412;-72
2022/10/17 03:19:08;;;;;;;6.17;5.03;;;16.70;99.90;;;;;;4964886;28;20468;-72
2022/10/17 03:21:40;;;;;;;7.83;5.07;;;16.70;99.90;;;;;;5013533;28;20456;-72
2022/10/17 03:24:06;;;;;;;5.10;4.60;;;16.80;99.90;;;;;;5024902;28;20424;-71
2022/10/17 03:26:35;;;;;;;4.97;4.47;;;16.80;99.90;;;;;;5012248;28;20954;-72
2022/10/17 03:29:06;;;;;;;5.30;4.80;;;16.70;99.90;;;;;;5016703;28;20431;-72
2022/10/17 03:31:36;;;;;;;5.47;4.97;;;16.70;99.90;;;;;;5024359;28;20458;-72
2022/10/17 03:34:02;;;;;;;5.70;5.20;;;16.70;99.90;;;;;;5031065;28;20441;-72
2022/10/17 03:36:29;;;;;;;9.90;4.97;;;16.70;99.90;;;;;;4989850;28;20820;-72
2022/10/17 03:38:59;;;;;;;5.07;4.57;;;16.80;99.90;;;;;;4994652;28;20792;-72
2022/10/17 03:41:28;;;;;;;5.70;4.50;;;16.70;99.90;;;;;;5018222;28;20962;-72
2022/10/17 03:43:57;;;;;;;6.90;5.00;;;16.80;99.90;;;;;;5032063;28;20441;-72
2022/10/17 03:46:24;;;;;;;6.53;5.40;;;16.80;99.90;;;;;;5007638;28;20426;-72
2022/10/17 03:48:50;;;;;;;6.30;4.20;;;16.80;99.90;;;;;;5038936;28;20517;-72
2022/10/17 03:51:18;;;;;;;5.33;4.83;;;16.80;99.90;;;;;;5005639;28;20408;-71
2022/10/17 03:53:50;;;;;;;5.77;4.87;;;16.80;99.90;;;;;;5019003;28;20449;-72
2022/10/17 03:56:21;;;;;;;5.47;5.07;;;16.80;99.90;;;;;;5050082;28;20424;-71
2022/10/17 03:58:59;;;;;;;5.90;4.77;;;16.80;99.90;;;;;;5034810;28;20400;-72
2022/10/17 04:01:28;;;;;;;6.40;5.07;;;16.80;99.90;;;;;;4984631;28;20429;-71
2022/10/17 04:03:56;;;;;;;5.90;5.10;;;16.80;99.90;;;;;;5014935;28;20447;-72
2022/10/17 04:06:23;;;;;;;5.70;4.97;;;16.70;99.90;;;;;;5032261;28;20783;-72
2022/10/17 04:08:49;;;;;;;5.73;5.10;;;16.70;99.90;;;;;;5014653;28;20447;-72
2022/10/17 04:11:26;;;;;;;8.43;5.40;;;16.80;99.90;;;;;;5027569;28;20440;-71
2022/10/17 04:13:59;;;;;;;5.97;4.80;;;16.80;99.90;;;;;;4986319;28;20434;-71
2022/10/17 04:16:29;;;;;;;5.50;5.00;;;16.80;99.90;;;;;;5017954;28;20396;-71
2022/10/17 04:18:59;;;;;;;5.50;5.00;;;16.70;99.90;;;;;;5015552;28;20439;-72
2022/10/17 04:21:29;;;;;;;4.90;4.50;;;16.80;99.90;;;;;;5040707;28;20425;-72
2022/10/17 04:24:03;;;;;;;5.27;4.40;;;16.80;99.90;;;;;;5016651;28;20531;-71
2022/10/17 04:26:50;;;;;;;7.03;5.00;;;16.80;99.90;;;;;;5032845;28;20448;-71
2022/10/17 04:29:17;;;;;;;5.70;5.10;;;16.70;99.90;;;;;;5017508;28;20413;-72
2022/10/17 04:31:48;;;;;;;6.23;5.10;;;16.80;99.90;;;;;;5009005;28;20768;-71
2022/10/17 04:34:36;;;;;;;6.20;4.63;;;16.80;99.90;;;;;;5014428;28;20457;-71
2022/10/17 04:37:07;;;;;;;5.80;5.30;;;16.80;99.90;;;;;;5035391;28;20577;-71
2022/10/17 04:39:38;;;;;;;7.27;5.00;;;16.80;99.90;;;;;;5017315;28;20427;-72
2022/10/17 04:42:04;;;;;;;6.23;4.90;;;16.80;99.90;;;;;;5005149;28;20471;-71
2022/10/17 04:44:32;;;;;;;11.10;5.90;;;16.80;99.90;;;;;;5029442;28;20971;-72
2022/10/17 04:47:01;;;;;;;5.00;4.50;;;16.80;99.90;;;;;;5025527;28;20668;-71
2022/10/17 04:49:29;;;;;;;5.77;4.80;;;16.80;99.90;;;;;;5017768;28;20417;-71
2022/10/17 04:52:01;;;;;;;9.17;4.87;;;16.80;99.90;;;;;;5022538;28;20420;-71
2022/10/17 04:54:47;;;;;;;5.10;4.60;;;16.80;99.90;;;;;;5028147;28;20413;-71
2022/10/17 04:57:14;;;;;;;8.00;4.97;;;16.80;99.90;;;;;;5042486;28;20800;-71
2022/10/17 04:59:47;;;;;;;4.83;4.33;;;16.80;99.90;;;;;;5042530;28;20421;-71
2022/10/17 05:02:34;;;;;;;7.30;5.47;;;16.70;99.90;;;;;;4986459;28;20543;-72
2022/10/17 05:05:05;;;;;;;5.30;4.80;;;16.70;99.90;;;;;;5006447;28;20448;-71
2022/10/17 05:07:34;;;;;;;5.73;5.13;;;16.80;99.90;;;;;;5033475;28;20437;-72
2022/10/17 05:10:09;;;;;;;6.23;5.10;;;16.70;99.90;;;;;;5015345;28;21034;-72
2022/10/17 05:12:39;;;;;;;6.50;4.90;;;16.80;99.90;;;;;;5025167;28;20518;-72
2022/10/17 05:15:08;;;;;;;6.13;5.00;;;16.80;99.90;;;;;;5010095;28;20509;-72
2022/10/17 05:17:34;;;;;;;5.10;4.60;;;16.80;99.90;;;;;;5019863;28;21041;-72
2022/10/17 05:20:00;;;;;;;6.13;4.47;;;16.80;99.90;;;;;;5040612;28;20433;-72
2022/10/17 05:22:31;;;;;;;5.90;4.87;;;16.70;99.90;;;;;;5020895;28;20510;-72
2022/10/17 05:25:01;;;;;;;5.30;4.80;;;16.80;99.90;;;;;;4993977;28;20951;-72
2022/10/17 05:27:30;;;;;;;5.80;4.80;;;16.70;99.90;;;;;;5029340;28;20543;-72
2022/10/17 05:29:57;;;;;;;5.47;4.97;;;16.70;99.90;;;;;;5015542;28;20440;-72
2022/10/17 05:32:27;;;;;;;5.80;5.00;;;16.80;99.90;;;;;;5017800;28;20868;-72
2022/10/17 05:34:54;;;;;;;7.70;4.60;;;16.80;99.90;;;;;;5006688;28;20469;-71
2022/10/17 05:37:27;;;;;;;5.90;5.23;;;16.70;99.90;;;;;;5012913;28;20459;-71
2022/10/17 05:40:01;;;;;;;6.07;5.47;;;16.70;99.90;;;;;;5026043;28;20602;-72
2022/10/17 05:42:28;;;;;;;7.00;5.47;;;16.70;99.90;;;;;;5004936;28;20552;-72
2022/10/17 05:44:57;;;;;;;7.50;5.20;;;16.70;99.90;;;;;;5039650;28;20935;-71
2022/10/17 05:47:28;;;;;;;7.33;5.37;;;16.80;99.90;;;;;;5009539;28;20443;-72
2022/10/17 05:49:57;;;;;;;7.33;5.10;;;16.80;99.90;;;;;;5018263;28;20445;-72
2022/10/17 05:52:29;;;;;;;6.50;5.10;;;16.80;99.90;;;;;;5009840;28;20828;-72
2022/10/17 05:55:05;;;;;;;4.57;4.17;;;16.80;99.90;;;;;;4996904;28;20446;-72
2022/10/17 05:57:31;;;;;;;9.70;4.80;;;16.70;99.90;;;;;;5028954;28;20467;-71
2022/10/17 05:59:57;;;;;;;5.80;5.20;;;16.80;99.90;;;;;;5014216;28;20449;-72
2022/10/17 06:02:29;;;;;;;5.40;4.90;;;16.70;99.90;;;;;;5024483;28;20453;-71
2022/10/17 06:04:57;;;;;;;5.53;4.50;;;16.70;99.90;;;;;;4999944;28;20560;-71
2022/10/17 06:07:25;;;;;;;5.53;4.97;;;16.70;99.90;;;;;;5003744;28;20468;-72
2022/10/17 06:10:29;;;;;;;5.77;5.17;;;16.80;99.90;;;;;;5000123;28;21078;-71
2022/10/17 06:12:56;;;;;;;10.03;5.13;;;16.70;99.90;;;;;;5011268;28;20531;-71
2022/10/17 06:15:22;;;;;;;6.73;6.03;;;16.70;99.90;;;;;;5020609;28;20477;-72
2022/10/17 06:18:21;;;;;;;5.33;4.83;;;16.80;99.90;;;;;;4989210;28;20504;-71
2022/10/17 06:20:52;;;;;;;5.93;5.33;;;16.80;99.90;;;;;;5012591;28;20466;-71
2022/10/17 06:23:20;;;;;;;7.07;5.00;;;16.70;99.90;;;;;;5022546;28;20547;-71
2022/10/17 06:26:03;;;;;;;6.70;5.17;;;16.70;99.90;;;;;;5011674;28;20441;-72
2022/10/17 06:28:34;;;;;;;5.53;4.87;;;16.70;99.90;;;;;;4992798;28;20811;-72
2022/10/17 06:31:11;;;;;;;6.63;5.40;;;16.80;99.90;;;;;;5025635;28;20428;-71
2022/10/17 06:33:40;;;;;;;5.03;4.30;;;16.70;99.90;;;;;;5011600;28;20754;-71
2022/10/17 06:36:12;;;;;;;8.67;5.20;;;16.70;99.90;;;;;;4994192;28;20438;-72
2022/10/17 06:38:41;;;;;;;5.97;5.37;;;16.70;99.90;;;;;;5007105;28;20474;-72
2022/10/17 06:41:19;;;;;;;10.17;5.30;;;16.70;99.90;;;;;;4974613;28;20466;-72
2022/10/17 06:43:48;;;;;;;8.40;5.07;;;16.70;99.90;;;;;;4998620;28;20470;-72
2022/10/17 06:46:43;;;;;;;5.80;5.17;;;16.80;99.90;;;;;;4990079;28;20438;-72
2022/10/17 06:49:14;;;;;;;5.73;4.90;;;16.80;99.90;;;;;;5012660;28;20427;-72
2022/10/17 06:52:05;;;;;;;7.27;5.10;;;16.80;99.90;;;;;;5024163;28;20464;-72
2022/10/17 06:54:41;;;;;;;5.97;5.10;;;16.80;99.90;;;;;;5009579;28;20494;-72
2022/10/17 06:57:32;;;;;;;8.03;4.73;;;16.70;99.90;;;;;;5008605;28;20880;-73
2022/10/17 07:00:19;;;;;;;6.90;5.30;;;16.70;99.90;;;;;;5014915;28;20414;-73
2022/10/17 07:02:50;;;;;;;5.80;4.80;;;16.80;99.90;;;;;;5017775;28;20565;-72
2022/10/17 07:05:18;;;;;;;6.00;4.93;;;16.80;99.90;;;;;;5012664;28;21006;-72
2022/10/17 07:07:45;;;;;;;6.10;5.50;;;16.70;99.90;;;;;;5039222;28;20455;-73
2022/10/17 07:10:11;;;;;;;6.63;5.20;;;16.70;99.90;;;;;;5019265;28;20471;-72
2022/10/17 07:12:39;;;;;;;6.77;4.90;;;16.80;99.90;;;;;;5005910;28;20448;-72
2022/10/17 07:15:08;;;;;;;5.10;4.70;;;16.70;99.90;;;;;;5040703;28;20426;-72
2022/10/17 07:17:36;;;;;;;6.97;5.13;;;16.70;99.90;;;;;;4998208;28;20955;-72
2022/10/17 07:20:03;;;;;;;4.97;4.40;;;16.70;99.90;;;;;;5013879;28;20479;-73
2022/10/17 07:22:32;;;;;;;8.00;5.33;;;16.80;99.90;;;;;;4988316;28;20476;-72
2022/10/17 07:25:00;;;;;;;10.00;5.47;;;16.80;99.90;;;;;;5023452;28;20571;-72
2022/10/17 07:27:31;;;;;;;5.70;5.20;;;16.80;99.90;;;;;;5007382;28;20445;-72
2022/10/17 07:29:57;;;;;;;6.03;4.90;;;16.80;99.90;;;;;;5027632;28;20424;-72
2022/10/17 07:32:43;;;;;;;5.77;5.20;;;16.80;99.90;;;;;;5002898;28;20491;-73
2022/10/17 07:35:12;;;;;;;6.67;4.60;;;16.80;99.90;;;;;;5041566;28;20424;-73
2022/10/17 07:37:39;;;;;;;5.73;5.10;;;16.80;99.90;;;;;;5020378;28;20465;-72
2022/10/17 07:40:09;;;;;;;11.20;5.60;;;16.80;99.90;;;;;;4994851;28;20949;-72
2022/10/17 07:42:39;;;;;;;7.00;5.37;;;16.80;99.90;;;;;;5005542;28;20449;-73
2022/10/17 07:45:09;;;;;;;5.70;4.70;;;16.80;99.90;;;;;;5047408;28;20480;-73
2022/10/17 07:47:36;;;;;;;5.33;4.80;;;16.80;99.90;;;;;;5013476;28;20484;-73
2022/10/17 07:50:07;;;;;;;5.87;4.57;;;16.80;99.90;;;;;;5027443;28;20448;-72
2022/10/17 07:52:33;;;;;;;6.00;5.47;;;16.80;99.90;;;;;;5025504;28;20473;-72
2022/10/17 07:54:59;;;;;;;5.27;4.77;;;16.80;99.90;;;;;;5003717;28;20453;-72
2022/10/17 07:57:28;;;;;;;6.27;4.43;;;16.80;99.90;;;;;;5030474;28;20972;-72
2022/10/17 07:59:54;;;;;;;7.73;4.90;;;16.80;99.90;;;;;;5023839;28;20413;-72
2022/10/17 08:02:23;;;;;;;6.47;4.80;;;16.90;99.90;;;;;;5038705;28;20510;-72
2022/10/17 08:04:52;;;;;;;5.40;4.87;;;16.90;99.90;;;;;;5024573;28;20446;-72
2022/10/17 08:07:23;;;;;;;6.33;4.73;;;16.90;99.90;;;;;;5010973;28;21002;-72
2022/10/17 08:09:49;;;;;;;7.50;4.90;;;16.90;99.90;;;;;;5033306;28;20898;-73
2022/10/17 08:12:15;;;;;;;7.47;4.90;;;16.90;99.90;;;;;;5020851;28;20487;-73
2022/10/17 08:14:42;;;;;;;5.93;5.07;;;16.90;99.90;;;;;;5025293;28;20421;-72
2022/10/17 08:17:10;;;;;;;6.73;5.00;;;16.90;99.90;;;;;;5023267;28;20452;-71
2022/10/17 08:19:39;;;;;;;5.97;5.47;;;16.90;99.90;;;;;;4993976;28;20796;-71
2022/10/17 08:22:08;;;;;;;5.53;5.03;;;16.90;99.90;;;;;;5011759;28;20572;-71
2022/10/17 08:24:38;;;;;;;9.63;4.77;;;16.90;99.90;;;;;;5027317;28;20903;-72
2022/10/17 08:27:10;;;;;;;5.17;4.67;;;16.90;99.90;;;;;;5026350;28;20448;-72
2022/10/17 08:29:39;;;;;;;5.57;5.07;;;16.90;99.90;;;;;;5022203;28;20816;-72
2022/10/17 08:32:10;;;;;;;6.43;5.70;;;16.90;99.90;;;;;;5007544;28;20420;-72
2022/10/17 08:34:36;;;;;;;5.30;4.80;;;17.00;99.90;;;;;;5018237;28;20421;-72
2022/10/17 08:37:05;;;;;;;5.53;4.70;;;17.00;99.90;;;;;;5012454;28;20464;-72
2022/10/17 08:39:33;;;;;;;16.47;5.50;;;17.00;99.90;;;;;;5040545;28;20935;-72
2022/10/17 08:42:21;;;;;;;5.90;5.20;;;17.00;99.90;;;;;;5003069;28;20463;-72
2022/10/17 08:44:50;;;;;;;5.87;4.90;;;17.00;99.90;;;;;;4997929;28;20540;-72
2022/10/17 08:47:27;;;;;;;5.50;4.50;;;17.00;99.90;;;;;;5016818;28;20446;-72
2022/10/17 08:50:11;;;;;;;5.70;5.20;;;17.00;99.90;;;;;;5017063;28;20782;-72
2022/10/17 08:52:43;;;;;;;5.50;5.00;;;17.00;99.90;;;;;;5001093;28;20460;-72
2022/10/17 08:55:33;;;;;;;7.43;4.93;;;17.00;99.90;;;;;;5028296;28;20515;-72
2022/10/17 08:57:59;;;;;;;5.70;4.73;;;17.10;99.90;;;;;;5037748;28;20458;-72
2022/10/17 09:00:29;;;;;;;7.43;5.10;;;17.00;99.90;;;;;;5000166;28;20939;-72
2022/10/17 09:03:14;;;;;;;5.00;4.50;;;17.10;99.90;;;;;;5050063;28;20449;-72
2022/10/17 09:05:49;;;;;;;5.07;4.10;;;17.10;99.90;;;;;;5022353;28;20452;-72
2022/10/17 09:08:30;;;;;;;5.23;4.70;;;17.10;99.90;;;;;;5013248;28;20575;-73
2022/10/17 09:11:18;;;;;;;7.23;5.10;;;17.10;99.90;;;;;;5020353;28;20446;-72
2022/10/17 09:14:05;;;;;;;5.57;4.30;;;17.10;99.90;;;;;;5014643;28;20772;-72
2022/10/17 09:17:14;;;;;;;5.77;4.77;;;17.10;99.90;;;;;;5027394;28;20517;-72
2022/10/17 09:20:21;;;;;;;7.30;5.03;;;17.10;99.90;;;;;;5028647;28;20796;-72
2022/10/17 09:22:56;;;;;;;7.27;5.37;;;17.20;99.90;;;;;;5021808;28;20537;-72
2022/10/17 09:25:24;;;;;;;6.30;4.60;;;17.20;99.90;;;;;;5008541;28;20438;-72
2022/10/17 09:28:22;;;;;;;7.20;4.30;;;17.20;99.90;;;;;;5019064;28;20939;-71
2022/10/17 09:31:21;;;;;;;5.03;4.07;;;17.20;99.90;;;;;;4997377;28;20418;-72
2022/10/17 09:33:50;;;;;;;7.43;4.57;;;17.20;99.90;;;;;;5005395;28;20482;-72
2022/10/17 09:36:36;;;;;;;8.20;4.97;;;17.20;99.90;;;;;;5030233;28;20485;-72
2022/10/17 09:39:16;;;;;;;8.03;5.10;;;17.20;99.90;;;;;;4998251;28;20440;-72
2022/10/17 09:41:51;;;;;;;5.67;5.07;;;17.30;99.90;;;;;;5007031;28;20522;-72
2022/10/17 09:44:24;;;;;;;5.33;4.30;;;17.30;99.90;;;;;;5025811;28;20505;-72
2022/10/17 09:47:09;;;;;;;6.07;5.47;;;17.30;99.90;;;;;;5010880;28;20452;-72
2022/10/17 09:49:41;;;;;;;4.70;4.30;;;17.30;99.90;;;;;;5028725;28;20409;-72
2022/10/17 09:52:20;;;;;;;5.67;4.70;;;17.30;99.90;;;;;;5005644;28;20613;-72
2022/10/17 09:54:53;;;;;;;8.80;5.90;;;17.30;99.90;;;;;;5028675;28;20993;-72
2022/10/17 09:57:22;;;;;;;7.63;4.67;;;17.30;99.90;;;;;;5028519;28;20434;-71
2022/10/17 09:59:58;;;;;;;5.43;4.67;;;17.30;99.90;;;;;;5031745;28;20921;-71
2022/10/17 10:02:29;;;;;;;5.90;4.40;;;17.30;99.90;;;;;;5018989;28;20845;-71
2022/10/17 10:04:59;;;;;;;5.87;5.00;;;17.40;99.90;;;;;;5031063;28;20424;-72
2022/10/17 10:07:30;;;;;;;6.03;5.00;;;17.40;99.90;;;;;;5023990;28;20523;-76
2022/10/17 10:10:00;;;;;;;10.33;5.30;;;17.40;99.90;;;;;;5014757;28;20444;-74
2022/10/17 10:12:32;;;;;;;7.13;5.00;;;17.30;99.90;;;;;;5003741;28;20481;-75
2022/10/17 10:14:58;;;;;;;5.03;4.53;;;17.40;99.90;;;;;;5029473;28;20425;-74
2022/10/17 10:17:35;;;;;;;6.00;5.00;;;17.40;99.90;;;;;;5030463;28;20462;-75
2022/10/17 10:20:23;;;;;;;4.87;4.40;;;17.40;99.90;;;;;;5096421;22;20461;-73
2022/10/17 10:23:13;;;;;;;4.63;4.23;;;17.40;99.90;;;;;;5044676;28;20618;-70
2022/10/17 10:26:18;;;;;;;6.40;4.83;;;17.40;99.90;;;;;;5044508;28;20448;-72
2022/10/17 10:28:55;;;;;;;6.07;5.07;;;17.40;99.90;;;;;;5009088;28;20436;-72
2022/10/17 10:31:34;;;;;;;5.00;4.50;;;17.40;99.90;;;;;;5018123;28;20448;-73
2022/10/17 10:34:19;;;;;;;5.27;4.77;;;17.40;99.90;;;;;;4983663;28;20478;-73
2022/10/17 10:37:19;;;;;;;4.80;4.40;;;17.40;99.90;;;;;;4976499;28;20448;-73
2022/10/17 10:39:51;;;;;;;8.17;4.73;;;17.40;99.90;;;;;;4976036;28;20423;-73
2022/10/17 10:42:41;;;;;;;11.30;5.57;;;17.40;99.90;;;;;;5031154;28;20543;-73
2022/10/17 10:45:21;;;;;;;11.87;4.70;;;17.40;99.90;;;;;;5008536;28;20527;-73
2022/10/17 10:48:01;;;;;;;6.90;4.10;;;17.40;99.90;;;;;;5004097;28;20449;-72
2022/10/17 10:50:57;;;;;;;6.87;4.20;;;17.40;99.90;;;;;;4987080;28;20433;-73
2022/10/17 10:54:02;;;;;;;6.53;4.93;;;17.50;99.90;;;;;;4975087;28;20444;-76
2022/10/17 10:56:52;;;;;;;4.67;4.27;;;17.40;99.90;;;;;;5014562;28;20505;-73
2022/10/17 10:59:52;;;;;;;5.90;5.20;;;17.50;99.90;;;;;;4989987;28;20418;-73
2022/10/17 11:02:24;;;;;;;6.20;4.50;;;17.50;99.90;;;;;;5016470;28;20479;-73
2022/10/17 11:04:58;;;;;;;13.70;4.87;;;17.50;99.90;;;;;;5006643;28;20543;-73
2022/10/17 11:07:33;;;;;;;5.10;4.50;;;17.50;99.90;;;;;;4992028;28;20444;-73
2022/10/17 11:10:11;;;;;;;6.17;5.13;;;17.50;99.90;;;;;;4996037;28;20497;-73
2022/10/17 11:12:43;;;;;;;5.63;4.43;;;17.50;99.90;;;;;;5030790;28;20429;-73
2022/10/17 11:15:18;;;;;;;8.00;5.50;;;17.50;99.90;;;;;;4998168;28;20421;-73
2022/10/17 11:18:04;;;;;;;7.40;4.83;;;17.50;99.90;;;;;;4998132;28;20459;-73
2022/10/17 11:20:51;;;;;;;5.13;4.43;;;17.50;99.90;;;;;;5014616;28;20550;-73
2022/10/17 11:23:40;;;;;;;6.00;4.87;;;17.50;99.90;;;;;;4998741;28;20549;-73
2022/10/17 11:26:39;;;;;;;5.57;4.77;;;17.50;99.90;;;;;;4995485;28;20780;-73
2022/10/17 11:29:10;;;;;;;7.27;4.80;;;17.50;99.90;;;;;;5028097;28;20426;-73
2022/10/17 11:31:46;;;;;;;5.13;4.63;;;17.50;99.90;;;;;;4994289;28;20847;-73
2022/10/17 11:34:30;;;;;;;7.53;5.00;;;17.50;99.90;;;;;;4981961;28;20449;-73
2022/10/17 11:37:01;;;;;;;5.63;5.00;;;17.50;99.90;;;;;;5031146;28;20859;-73
2022/10/17 11:39:52;;;;;;;7.20;5.80;;;17.60;99.90;;;;;;5022210;28;20431;-74
2022/10/17 11:42:37;;;;;;;7.63;5.07;;;17.50;99.90;;;;;;4998038;28;20454;-74
2022/10/17 11:45:17;;;;;;;7.23;5.10;;;17.60;99.90;;;;;;5012414;28;20402;-74
2022/10/17 11:48:00;;;;;;;12.33;5.20;;;17.60;99.90;;;;;;4985161;28;20459;-73
2022/10/17 11:50:33;;;;;;;8.03;5.03;;;17.60;99.90;;;;;;5029105;28;20830;-74
2022/10/17 11:53:05;;;;;;;10.60;4.90;;;17.60;99.90;;;;;;4988207;28;20802;-73
2022/10/17 11:55:33;;;;;;;5.30;4.50;;;17.60;99.90;;;;;;5030552;28;20425;-74
2022/10/17 11:58:30;;;;;;;5.30;4.47;;;17.60;99.90;;;;;;4992916;28;20552;-73
2022/10/17 12:01:08;;;;;;;6.30;4.70;;;17.60;99.90;;;;;;5001202;28;20429;-73
2022/10/17 12:04:04;;;;;;;7.60;4.43;;;17.60;99.90;;;;;;5027124;28;20490;-73
2022/10/17 12:06:33;;;;;;;4.53;4.00;;;17.60;99.90;;;;;;5015229;28;20449;-73
2022/10/17 12:09:31;;;;;;;6.57;4.80;;;17.60;99.90;;;;;;5031412;28;20452;-73
2022/10/17 12:12:02;;;;;;;4.67;4.27;;;17.60;99.90;;;;;;5010266;28;20828;-73
2022/10/17 12:14:45;;;;;;;5.70;5.10;;;17.70;99.90;;;;;;5014875;28;20432;-73
2022/10/17 12:17:35;;;;;;;4.80;4.30;;;17.70;99.90;;;;;;4989384;28;20868;-73
2022/10/17 12:20:20;;;;;;;6.77;4.37;;;17.60;99.90;;;;;;4998492;28;20535;-74
2022/10/17 12:22:51;;;;;;;6.53;4.70;;;17.70;99.90;;;;;;4996644;28;20465;-73
2022/10/17 12:25:31;;;;;;;6.67;5.60;;;17.70;99.90;;;;;;5009276;28;20469;-73
2022/10/17 12:28:25;;;;;;;5.10;4.63;;;17.70;99.90;;;;;;5014788;28;20445;-73
2022/10/17 12:31:20;;;;;;;6.63;5.30;;;17.70;99.90;;;;;;5034887;28;20452;-73
2022/10/17 12:34:01;;;;;;;5.13;4.60;;;17.70;99.90;;;;;;4995257;28;20429;-74
2022/10/17 12:36:27;;;;;;;5.33;4.70;;;17.70;99.90;;;;;;5002753;28;20799;-73
2022/10/17 12:39:25;;;;;;;5.50;4.97;;;17.70;99.90;;;;;;4998310;28;20439;-73
2022/10/17 12:41:53;;;;;;;5.93;4.83;;;17.70;99.90;;;;;;5014921;28;20417;-73
2022/10/17 12:44:21;;;;;;;6.07;5.27;;;17.70;99.90;;;;;;5016144;28;20160;-73
2022/10/17 12:47:28;;;;;;;6.80;5.03;;;17.70;99.90;;;;;;4971075;28;20550;-73
2022/10/17 12:50:03;;;;;;;8.30;4.57;;;17.70;99.90;;;;;;5001212;28;20447;-73
2022/10/17 12:52:34;;;;;;;5.30;4.77;;;17.70;99.90;;;;;;5013464;28;20452;-73
2022/10/17 12:55:05;;;;;;;10.20;5.20;;;17.70;99.90;;;;;;4990282;28;20516;-74
2022/10/17 12:57:37;;;;;;;7.63;4.97;;;17.70;99.90;;;;;;5034258;28;20450;-74
2022/10/17 13:00:21;;;;;;;8.07;5.03;;;17.70;99.90;;;;;;5009946;28;20518;-73
2022/10/17 13:03:03;;;;;;;7.37;5.10;;;17.70;99.90;;;;;;5023257;28;20499;-73
2022/10/17 13:05:35;;;;;;;4.83;4.40;;;17.70;99.90;;;;;;5010157;28;20949;-73
2022/10/17 13:08:04;;;;;;;7.10;4.90;;;17.70;99.90;;;;;;5034206;28;20445;-73
2022/10/17 13:10:37;;;;;;;6.37;4.70;;;17.70;99.90;;;;;;4990743;28;20578;-73
2022/10/17 13:13:14;;;;;;;5.00;4.60;;;17.70;99.90;;;;;;4981444;28;20430;-73
2022/10/17 13:16:01;;;;;;;6.37;5.17;;;17.70;99.90;;;;;;5029535;28;20839;-73
2022/10/17 13:18:28;;;;;;;6.60;4.57;;;17.80;99.90;;;;;;5008311;28;20466;-73
2022/10/17 13:21:05;;;;;;;8.60;4.60;;;17.80;99.90;;;;;;4987594;28;20720;-73
2022/10/17 13:23:37;;;;;;;5.73;4.50;;;17.80;99.90;;;;;;5028845;28;20462;-73
2022/10/17 13:26:19;;;;;;;5.43;4.93;;;17.80;99.90;;;;;;5015130;28;20497;-73
2022/10/17 13:29:12;;;;;;;6.13;4.37;;;17.80;99.90;;;;;;4991344;28;20437;-74